createdAt,value
2023-04-18T00:01:40.574Z,6.42
2023-04-18T00:04:08.812Z,6.43
2023-04-18T00:06:35.660Z,6.47
2023-04-18T00:09:02.448Z,6.32
2023-04-18T00:11:29.243Z,6.48
2023-04-18T00:13:56.781Z,6.31
2023-04-18T00:16:24.063Z,6.41
2023-04-18T00:18:51.994Z,6.47
2023-04-18T00:21:18.619Z,6.37
2023-04-18T00:23:45.841Z,6.29
2023-04-18T00:26:12.684Z,6.32
2023-04-18T00:28:39.284Z,6.36
2023-04-18T00:31:06.067Z,6.18
2023-04-18T00:33:34.187Z,6.29
2023-04-18T00:36:00.890Z,6.23
2023-04-18T00:38:27.488Z,6.21
2023-04-18T00:40:54.123Z,6.12
2023-04-18T00:43:23.635Z,6.29
2023-04-18T00:45:50.582Z,6.08
2023-04-18T00:48:18.091Z,6.11
2023-04-18T00:50:45.460Z,6.13
2023-04-18T00:53:13.258Z,6.00
2023-04-18T00:55:41.496Z,6.00
2023-04-18T00:58:08.137Z,6.01
2023-04-18T01:00:34.809Z,5.93
2023-04-18T01:03:01.705Z,5.97
2023-04-18T01:05:28.660Z,5.97
2023-04-18T01:07:55.381Z,6.04
2023-04-18T01:10:22.084Z,6.04
2023-04-18T01:12:48.732Z,6.21
2023-04-18T01:15:15.382Z,5.94
2023-04-18T01:17:42.070Z,5.91
2023-04-18T01:20:09.261Z,6.03
2023-04-18T01:22:35.937Z,5.91
2023-04-18T01:25:07.520Z,5.95
2023-04-18T01:27:34.128Z,6.10
2023-04-18T01:30:00.777Z,5.92
2023-04-18T01:32:27.514Z,6.19
2023-04-18T01:34:54.154Z,6.03
2023-04-18T01:37:20.818Z,6.19
2023-04-18T01:39:47.815Z,6.12
2023-04-18T01:42:14.439Z,6.05
2023-04-18T01:44:41.053Z,6.20
2023-04-18T01:47:07.719Z,6.08
2023-04-18T01:49:34.309Z,5.99
2023-04-18T01:52:00.902Z,6.17
2023-04-18T01:54:27.573Z,6.01
2023-04-18T01:56:54.201Z,6.07
2023-04-18T01:59:20.849Z,6.11
2023-04-18T02:01:47.468Z,6.08
2023-04-18T02:04:14.366Z,6.19
2023-04-18T02:06:41.145Z,6.15
2023-04-18T02:09:07.766Z,5.97
2023-04-18T02:11:34.399Z,5.99
2023-04-18T02:14:01.012Z,6.02
2023-04-18T02:16:27.721Z,6.00
2023-04-18T02:18:54.397Z,6.07
2023-04-18T02:21:21.029Z,5.96
2023-04-18T02:23:47.622Z,6.12
2023-04-18T02:26:15.863Z,6.20
2023-04-18T02:28:42.475Z,6.20
2023-04-18T02:31:09.106Z,6.69
2023-04-18T02:33:35.720Z,6.59
2023-04-18T02:36:02.319Z,6.33
2023-04-18T02:38:28.925Z,6.40
2023-04-18T02:40:55.619Z,6.23
2023-04-18T02:43:22.217Z,6.15
2023-04-18T02:45:48.866Z,6.12
2023-04-18T02:48:15.658Z,6.17
2023-04-18T02:50:42.331Z,5.99
2023-04-18T02:53:09.001Z,6.01
2023-04-18T02:55:35.665Z,6.15
2023-04-18T02:58:02.278Z,6.14
2023-04-18T03:00:29.179Z,6.07
2023-04-18T03:02:55.902Z,5.96
2023-04-18T03:05:22.638Z,6.10
2023-04-18T03:07:49.312Z,6.36
2023-04-18T03:10:15.941Z,6.36
2023-04-18T03:12:42.597Z,6.37
2023-04-18T03:15:09.663Z,6.25
2023-04-18T03:17:36.433Z,6.69
2023-04-18T03:20:03.171Z,6.37
2023-04-18T03:22:29.788Z,6.41
2023-04-18T03:24:56.417Z,6.30
2023-04-18T03:27:23.025Z,6.29
2023-04-18T03:29:49.614Z,6.32
2023-04-18T03:32:16.220Z,6.29
2023-04-18T03:34:42.834Z,6.47
2023-04-18T03:37:09.512Z,6.58
2023-04-18T03:39:36.120Z,6.71
2023-04-18T03:42:02.741Z,6.90
2023-04-18T03:44:29.340Z,6.75
2023-04-18T03:46:56.070Z,7.00
2023-04-18T03:49:22.793Z,7.89
2023-04-18T03:51:50.488Z,7.77
2023-04-18T03:54:17.744Z,7.32
2023-04-18T03:56:45.072Z,7.89
2023-04-18T03:59:12.011Z,7.71
2023-04-18T04:01:38.819Z,8.11
2023-04-18T04:04:05.671Z,8.75
2023-04-18T04:06:32.436Z,8.22
2023-04-18T04:08:59.050Z,8.08
2023-04-18T04:11:27.074Z,8.16
2023-04-18T04:13:53.700Z,8.31
2023-04-18T04:16:20.465Z,7.64
2023-04-18T04:18:47.125Z,8.18
2023-04-18T04:21:13.759Z,8.62
2023-04-18T04:23:40.358Z,8.70
2023-04-18T04:26:06.990Z,8.52
2023-04-18T04:28:33.761Z,8.42
2023-04-18T04:31:00.348Z,8.41
2023-04-18T04:33:26.991Z,8.44
2023-04-18T04:35:53.688Z,9.19
2023-04-18T04:38:20.331Z,8.94
2023-04-18T04:40:47.110Z,8.87
2023-04-18T04:43:13.745Z,9.14
2023-04-18T04:45:40.752Z,9.10
2023-04-18T04:48:08.574Z,8.76
2023-04-18T04:50:37.652Z,9.32
2023-04-18T04:53:05.497Z,9.66
2023-04-18T04:55:32.446Z,9.81
2023-04-18T04:57:59.107Z,9.47
2023-04-18T05:00:26.033Z,9.72
2023-04-18T05:02:56.346Z,9.68
2023-04-18T05:05:23.191Z,9.86
2023-04-18T05:07:50.392Z,9.95
2023-04-18T05:10:17.010Z,9.71
2023-04-18T05:12:43.660Z,9.76
2023-04-18T05:15:11.044Z,8.95
2023-04-18T05:17:37.775Z,9.09
2023-04-18T05:20:05.566Z,9.70
2023-04-18T05:22:32.597Z,9.84
2023-04-18T05:24:59.212Z,9.98
2023-04-18T05:27:27.833Z,10.08
2023-04-18T05:29:54.851Z,10.11
2023-04-18T05:32:21.493Z,9.97
2023-04-18T05:34:48.719Z,10.17
2023-04-18T05:37:15.363Z,10.22
2023-04-18T05:39:42.281Z,10.37
2023-04-18T05:42:08.912Z,9.84
2023-04-18T05:44:36.540Z,9.95
2023-04-18T05:47:04.397Z,10.05
2023-04-18T05:49:31.315Z,10.49
2023-04-18T05:51:58.170Z,10.31
2023-04-18T05:54:24.859Z,10.34
2023-04-18T05:56:51.558Z,10.60
2023-04-18T05:59:18.192Z,9.62
2023-04-18T06:01:44.805Z,10.23
2023-04-18T06:04:11.794Z,10.52
2023-04-18T06:06:38.747Z,10.90
2023-04-18T06:09:05.375Z,11.17
2023-04-18T06:11:32.042Z,11.36
2023-04-18T06:13:58.724Z,11.28
2023-04-18T06:16:25.366Z,11.08
2023-04-18T06:18:52.086Z,11.52
2023-04-18T06:21:18.769Z,11.63
2023-04-18T06:23:45.615Z,11.83
2023-04-18T06:26:12.448Z,11.67
2023-04-18T06:28:39.111Z,11.66
2023-04-18T06:31:05.772Z,11.93
2023-04-18T06:33:33.404Z,11.81
2023-04-18T06:36:00.140Z,12.12
2023-04-18T06:38:26.900Z,11.36
2023-04-18T06:40:53.561Z,11.59
2023-04-18T06:43:20.204Z,11.89
2023-04-18T06:45:46.887Z,12.00
2023-04-18T06:48:13.673Z,11.25
2023-04-18T06:50:40.303Z,11.55
2023-04-18T06:53:06.971Z,10.71
2023-04-18T06:55:33.677Z,10.54
2023-04-18T06:58:00.352Z,11.01
2023-04-18T07:00:27.145Z,11.04
2023-04-18T07:02:53.925Z,11.33
2023-04-18T07:05:20.874Z,11.37
2023-04-18T07:07:47.711Z,11.78
2023-04-18T07:10:14.396Z,11.13
2023-04-18T07:12:41.102Z,11.35
2023-04-18T07:15:08.294Z,11.94
2023-04-18T07:17:35.094Z,11.47
2023-04-18T07:20:01.861Z,11.44
2023-04-18T07:22:28.726Z,11.88
2023-04-18T07:24:55.459Z,11.40
2023-04-18T07:27:22.090Z,11.87
2023-04-18T07:29:48.698Z,12.16
2023-04-18T07:32:15.483Z,12.46
2023-04-18T07:34:42.113Z,11.58
2023-04-18T07:37:08.804Z,11.99
2023-04-18T07:39:35.425Z,12.26
2023-04-18T07:42:03.729Z,12.53
2023-04-18T07:44:30.390Z,12.51
2023-04-18T07:46:57.208Z,12.25
2023-04-18T07:49:23.876Z,12.78
2023-04-18T07:51:50.536Z,13.33
2023-04-18T07:54:17.242Z,13.06
2023-04-18T07:56:43.869Z,14.36
2023-04-18T07:59:11.681Z,13.66
2023-04-18T08:01:38.330Z,14.50
2023-04-18T08:04:05.310Z,15.27
2023-04-18T08:06:32.061Z,15.68
2023-04-18T08:08:58.807Z,14.57
2023-04-18T08:11:26.750Z,15.36
2023-04-18T08:13:53.431Z,16.05
2023-04-18T08:16:20.119Z,16.88
2023-04-18T08:18:46.926Z,16.41
2023-04-18T08:21:13.586Z,16.39
2023-04-18T08:23:40.509Z,16.74
2023-04-18T08:26:07.153Z,17.52
2023-04-18T08:28:33.757Z,18.15
2023-04-18T08:31:00.384Z,17.11
2023-04-18T08:33:27.051Z,16.64
2023-04-18T08:35:54.812Z,16.25
2023-04-18T08:38:21.466Z,16.17
2023-04-18T08:40:48.480Z,16.93
2023-04-18T08:43:15.223Z,17.08
2023-04-18T08:45:43.035Z,17.44
2023-04-18T08:48:17.099Z,17.58
2023-04-18T08:50:45.065Z,16.88
2023-04-18T08:53:12.177Z,16.00
2023-04-18T08:55:38.810Z,16.30
2023-04-18T08:58:05.457Z,16.84
2023-04-18T09:00:32.788Z,16.72
2023-04-18T09:02:59.555Z,16.90
2023-04-18T09:05:27.054Z,16.28
2023-04-18T09:07:55.676Z,15.89
2023-04-18T09:10:29.193Z,15.41
2023-04-18T09:12:57.732Z,15.99
2023-04-18T09:15:25.914Z,15.79
2023-04-18T09:17:54.637Z,15.53
2023-04-18T09:20:36.225Z,15.18
2023-04-18T09:23:08.592Z,14.57
2023-04-18T09:25:44.496Z,14.24
2023-04-18T09:28:33.477Z,14.14
2023-04-18T09:31:03.236Z,13.90
2023-04-18T09:33:31.549Z,14.10
2023-04-18T09:36:17.307Z,14.07
2023-04-18T09:38:44.435Z,13.94
2023-04-18T09:41:13.171Z,14.20
2023-04-18T09:43:40.800Z,13.64
2023-04-18T09:46:08.631Z,13.93
2023-04-18T09:48:35.810Z,13.91
2023-04-18T09:51:07.948Z,14.06
2023-04-18T09:53:39.448Z,13.65
2023-04-18T09:56:19.649Z,13.67
2023-04-18T09:58:50.529Z,14.13
2023-04-18T10:01:17.445Z,14.31
2023-04-18T10:03:50.297Z,13.92
2023-04-18T10:06:17.869Z,14.21
2023-04-18T10:08:47.703Z,13.97
2023-04-18T10:11:15.194Z,13.93
2023-04-18T10:13:47.304Z,14.34
2023-04-18T10:16:16.521Z,14.04
2023-04-18T10:18:43.480Z,13.77
2023-04-18T10:21:10.081Z,13.95
2023-04-18T10:23:40.377Z,13.38
2023-04-18T10:26:10.999Z,13.39
2023-04-18T10:28:58.094Z,13.81
2023-04-18T10:31:29.301Z,13.75
2023-04-18T10:36:30.096Z,14.06
2023-04-18T10:39:20.756Z,13.96
2023-04-18T10:41:51.444Z,14.22
2023-04-18T10:44:20.540Z,14.18
2023-04-18T10:46:53.208Z,14.13
2023-04-18T10:49:27.349Z,13.97
2023-04-18T10:51:57.779Z,14.18
2023-04-18T10:54:27.515Z,14.62
2023-04-18T10:56:58.237Z,14.36
2023-04-18T10:59:26.318Z,14.19
2023-04-18T11:02:27.079Z,14.16
2023-04-18T11:04:58.708Z,14.00
2023-04-18T11:07:42.084Z,14.18
2023-04-18T11:10:09.761Z,14.57
2023-04-18T11:12:38.745Z,14.82
2023-04-18T11:15:20.754Z,15.12
2023-04-18T11:17:59.097Z,14.68
2023-04-18T11:20:26.555Z,14.38
2023-04-18T11:22:55.566Z,14.43
2023-04-18T11:25:29.375Z,14.39
2023-04-18T11:27:59.604Z,14.53
2023-04-18T11:30:26.292Z,14.41
2023-04-18T11:32:53.047Z,14.80
2023-04-18T11:35:19.905Z,14.95
2023-04-18T11:37:46.517Z,14.41
2023-04-18T11:40:14.053Z,14.22
2023-04-18T11:42:41.926Z,14.67
2023-04-18T11:45:17.300Z,14.81
2023-04-18T11:47:45.940Z,15.40
2023-04-18T11:50:13.705Z,14.97
2023-04-18T11:52:41.776Z,15.34
2023-04-18T11:55:15.514Z,15.34
2023-04-18T11:57:42.251Z,15.37
2023-04-18T12:00:10.119Z,15.12
2023-04-18T12:02:46.808Z,15.34
2023-04-18T12:05:28.506Z,15.28
2023-04-18T12:07:56.454Z,15.01
2023-04-18T12:10:24.646Z,15.15
2023-04-18T12:12:59.057Z,14.81
2023-04-18T12:15:28.077Z,14.76
2023-04-18T12:18:05.621Z,15.61
2023-04-18T12:20:38.596Z,15.52
2023-04-18T12:23:06.994Z,15.96
2023-04-18T12:25:33.711Z,16.09
2023-04-18T12:28:03.669Z,15.89
2023-04-18T12:30:35.382Z,15.97
2023-04-18T12:33:05.044Z,15.69
2023-04-18T12:35:32.713Z,15.85
2023-04-18T12:38:02.218Z,16.45
2023-04-18T12:40:30.072Z,16.34
2023-04-18T12:42:56.859Z,16.75
2023-04-18T12:45:24.045Z,16.52
2023-04-18T12:47:52.575Z,16.74
2023-04-18T12:50:22.922Z,16.87
2023-04-18T12:52:52.534Z,17.25
2023-04-18T12:55:19.855Z,17.14
2023-04-18T12:57:46.676Z,17.05
2023-04-18T13:00:13.874Z,16.63
2023-04-18T13:02:43.634Z,16.47
2023-04-18T13:05:15.968Z,16.52
2023-04-18T13:07:43.859Z,16.87
2023-04-18T13:10:16.273Z,16.85
2023-04-18T13:12:42.932Z,17.26
2023-04-18T13:15:10.268Z,16.93
2023-04-18T13:17:37.952Z,17.25
2023-04-18T13:20:06.734Z,17.54
2023-04-18T13:22:33.912Z,17.50
2023-04-18T13:25:00.560Z,17.42
2023-04-18T13:27:27.420Z,17.44
2023-04-18T13:29:54.195Z,17.66
2023-04-18T13:32:21.250Z,17.45
2023-04-18T13:34:48.439Z,17.97
2023-04-18T13:37:15.771Z,17.81
2023-04-18T13:39:42.673Z,17.98
2023-04-18T13:42:12.656Z,17.95
2023-04-18T13:44:40.122Z,18.03
2023-04-18T13:47:07.507Z,18.54
2023-04-18T13:49:35.755Z,17.86
2023-04-18T13:52:03.304Z,17.82
2023-04-18T13:54:32.083Z,18.15
2023-04-18T13:57:01.507Z,17.74
2023-04-18T13:59:28.571Z,17.69
2023-04-18T14:01:55.879Z,17.70
2023-04-18T14:04:23.571Z,18.18
2023-04-18T14:06:50.531Z,18.04
2023-04-18T14:09:17.928Z,17.87
2023-04-18T14:11:45.489Z,17.80
2023-04-18T14:14:14.644Z,17.93
2023-04-18T14:16:43.623Z,17.75
2023-04-18T14:19:10.264Z,17.84
2023-04-18T14:21:36.960Z,17.48
2023-04-18T14:24:05.615Z,17.77
2023-04-18T14:26:32.234Z,17.20
2023-04-18T14:28:58.916Z,17.12
2023-04-18T14:31:25.578Z,16.97
2023-04-18T14:33:52.256Z,16.31
2023-04-18T14:36:18.873Z,16.63
2023-04-18T14:38:49.037Z,16.47
2023-04-18T14:41:16.207Z,16.80
2023-04-18T14:43:42.942Z,16.34
2023-04-18T14:46:13.916Z,15.92
2023-04-18T14:48:40.721Z,15.46
2023-04-18T14:51:07.413Z,15.37
2023-04-18T14:53:34.078Z,15.28
2023-04-18T14:56:03.419Z,15.48
2023-04-18T14:58:30.282Z,15.28
2023-04-18T15:00:56.907Z,15.00
2023-04-18T15:03:23.674Z,15.43
2023-04-18T15:05:50.335Z,16.01
2023-04-18T15:08:17.219Z,16.22
2023-04-18T15:10:43.883Z,16.42
2023-04-18T15:13:11.132Z,16.17
2023-04-18T15:15:38.813Z,16.46
2023-04-18T15:18:07.135Z,16.51
2023-04-18T15:20:34.649Z,16.43
2023-04-18T15:23:01.647Z,16.53
2023-04-18T15:25:28.458Z,17.20
2023-04-18T15:27:55.073Z,16.76
2023-04-18T15:30:21.780Z,16.80
2023-04-18T15:32:48.543Z,16.38
2023-04-18T15:35:15.274Z,15.90
2023-04-18T15:37:41.924Z,15.78
2023-04-18T15:40:09.121Z,15.60
2023-04-18T15:42:35.857Z,15.90
2023-04-18T15:45:04.353Z,15.75
2023-04-18T15:47:33.286Z,15.78
2023-04-18T15:50:00.524Z,15.63
2023-04-18T15:52:27.165Z,15.74
2023-04-18T15:54:53.985Z,15.73
2023-04-18T15:57:20.610Z,15.57
2023-04-18T15:59:47.233Z,15.60
2023-04-18T16:02:14.029Z,15.19
2023-04-18T16:04:40.792Z,15.56
2023-04-18T16:07:07.440Z,15.59
2023-04-18T16:09:34.098Z,15.54
2023-04-18T16:12:00.707Z,15.66
2023-04-18T16:14:27.336Z,15.60
2023-04-18T16:16:53.997Z,15.92
2023-04-18T16:19:20.662Z,15.63
2023-04-18T16:21:47.406Z,14.97
2023-04-18T16:24:19.597Z,15.09
2023-04-18T16:26:46.273Z,15.24
2023-04-18T16:29:12.936Z,15.26
2023-04-18T16:31:39.578Z,15.21
2023-04-18T16:34:06.382Z,14.83
2023-04-18T16:36:33.475Z,14.86
2023-04-18T16:39:00.116Z,14.69
2023-04-18T16:41:26.804Z,14.64
2023-04-18T16:43:53.447Z,14.68
2023-04-18T16:46:20.085Z,14.85
2023-04-18T16:48:46.703Z,15.16
2023-04-18T16:51:13.379Z,14.88
2023-04-18T16:53:40.091Z,15.09
2023-04-18T16:56:06.813Z,15.00
2023-04-18T16:58:33.450Z,15.12
2023-04-18T17:01:01.790Z,15.00
2023-04-18T17:03:28.571Z,14.79
2023-04-18T17:05:55.730Z,15.11
2023-04-18T17:08:22.385Z,15.11
2023-04-18T17:10:51.754Z,14.95
2023-04-18T17:13:18.521Z,14.93
2023-04-18T17:15:45.267Z,14.91
2023-04-18T17:18:12.010Z,14.90
2023-04-18T17:20:39.574Z,14.87
2023-04-18T17:23:06.302Z,15.07
2023-04-18T17:25:32.898Z,14.98
2023-04-18T17:27:59.536Z,15.01
2023-04-18T17:30:26.217Z,15.43
2023-04-18T17:32:52.912Z,14.86
2023-04-18T17:35:19.800Z,14.84
2023-04-18T17:37:47.320Z,14.77
2023-04-18T17:40:14.215Z,14.64
2023-04-18T17:42:40.990Z,14.35
2023-04-18T17:45:09.746Z,14.14
2023-04-18T17:47:39.084Z,14.20
2023-04-18T17:50:06.620Z,14.00
2023-04-18T17:52:33.371Z,13.72
2023-04-18T17:55:00.655Z,13.60
2023-04-18T17:57:27.612Z,13.53
2023-04-18T17:59:54.266Z,13.44
2023-04-18T18:02:21.014Z,13.50
2023-04-18T18:04:47.661Z,13.41
2023-04-18T18:07:14.285Z,13.22
2023-04-18T18:09:40.958Z,13.16
2023-04-18T18:12:09.044Z,12.95
2023-04-18T18:14:35.769Z,12.86
2023-04-18T18:17:03.003Z,12.73
2023-04-18T18:19:29.821Z,12.70
2023-04-18T18:21:56.573Z,12.66
2023-04-18T18:24:23.218Z,12.70
2023-04-18T18:26:51.961Z,12.63
2023-04-18T18:29:18.812Z,12.53
2023-04-18T18:31:45.574Z,12.48
2023-04-18T18:34:12.292Z,12.54
2023-04-18T18:36:38.954Z,12.50
2023-04-18T18:39:05.595Z,12.50
2023-04-18T18:41:32.210Z,12.30
2023-04-18T18:43:58.864Z,12.41
2023-04-18T18:46:25.611Z,12.24
2023-04-18T18:48:52.271Z,12.24
2023-04-18T18:51:18.995Z,12.10
2023-04-18T18:53:46.535Z,12.02
2023-04-18T18:56:13.321Z,11.95
2023-04-18T18:58:39.929Z,12.04
2023-04-18T19:01:06.772Z,11.96
2023-04-18T19:03:33.506Z,11.81
2023-04-18T19:06:00.296Z,11.75
2023-04-18T19:08:26.919Z,11.77
2023-04-18T19:10:53.543Z,11.68
2023-04-18T19:13:22.024Z,11.65
2023-04-18T19:15:48.903Z,11.68
2023-04-18T19:18:15.641Z,11.78
2023-04-18T19:20:42.311Z,11.67
2023-04-18T19:23:08.925Z,11.68
2023-04-18T19:25:35.616Z,11.70
2023-04-18T19:28:02.392Z,11.72
2023-04-18T19:30:29.191Z,11.67
2023-04-18T19:32:55.847Z,11.70
2023-04-18T19:35:22.719Z,11.59
2023-04-18T19:37:49.570Z,11.54
2023-04-18T19:40:16.388Z,11.59
2023-04-18T19:42:43.080Z,11.51
2023-04-18T19:45:10.243Z,11.56
2023-04-18T19:47:36.946Z,11.51
2023-04-18T19:50:03.926Z,11.49
2023-04-18T19:52:30.592Z,11.47
2023-04-18T19:54:57.213Z,11.50
2023-04-18T19:57:23.806Z,11.51
2023-04-18T19:59:50.458Z,11.52
2023-04-18T20:02:17.116Z,11.43
2023-04-18T20:04:44.099Z,11.51
2023-04-18T20:07:10.910Z,11.36
2023-04-18T20:09:37.556Z,11.37
2023-04-18T20:12:04.324Z,11.33
2023-04-18T20:14:32.084Z,11.32
2023-04-18T20:16:58.684Z,11.32
2023-04-18T20:19:25.332Z,11.28
2023-04-18T20:21:52.337Z,11.28
2023-04-18T20:24:18.989Z,11.30
2023-04-18T20:26:45.579Z,11.24
2023-04-18T20:29:12.445Z,11.21
2023-04-18T20:31:42.274Z,11.17
2023-04-18T20:34:08.921Z,11.11
2023-04-18T20:36:36.897Z,11.08
2023-04-18T20:39:03.528Z,11.08
2023-04-18T20:41:30.289Z,11.09
2023-04-18T20:43:56.993Z,11.07
2023-04-18T20:46:23.827Z,11.05
2023-04-18T20:48:50.480Z,11.05
2023-04-18T20:51:17.092Z,10.99
2023-04-18T20:53:43.722Z,10.93
2023-04-18T20:56:10.323Z,10.93
2023-04-18T20:58:38.382Z,10.95
2023-04-18T21:01:05.053Z,10.88
2023-04-18T21:03:31.857Z,10.94
2023-04-18T21:05:58.611Z,10.80
2023-04-18T21:08:25.188Z,10.79
2023-04-18T21:10:52.072Z,10.68
2023-04-18T21:13:18.793Z,10.75
2023-04-18T21:15:45.447Z,10.62
2023-04-18T21:18:12.139Z,10.60
2023-04-18T21:20:38.850Z,10.54
2023-04-18T21:23:05.508Z,10.65
2023-04-18T21:25:32.118Z,10.60
2023-04-18T21:27:58.737Z,10.64
2023-04-18T21:30:25.569Z,10.55
2023-04-18T21:32:52.266Z,10.43
2023-04-18T21:35:20.266Z,10.34
2023-04-18T21:37:48.603Z,10.27
2023-04-18T21:40:15.433Z,10.18
2023-04-18T21:42:42.107Z,10.15
2023-04-18T21:45:10.089Z,10.13
2023-04-18T21:47:36.788Z,10.20
2023-04-18T21:50:03.944Z,10.13
2023-04-18T21:52:30.574Z,10.07
2023-04-18T21:54:57.184Z,10.17
2023-04-18T21:57:23.842Z,10.09
2023-04-18T21:59:50.469Z,10.13
2023-04-18T22:02:17.645Z,10.11
2023-04-18T22:04:44.348Z,10.09
2023-04-18T22:07:10.983Z,9.93
2023-04-18T22:09:37.945Z,9.95
2023-04-18T22:12:04.891Z,9.96
2023-04-18T22:14:31.542Z,10.03
2023-04-18T22:16:58.358Z,10.22
2023-04-18T22:19:25.598Z,9.95
2023-04-18T22:21:52.295Z,9.85
2023-04-18T22:24:19.016Z,9.98
2023-04-18T22:26:45.638Z,9.96
2023-04-18T22:29:12.273Z,9.94
2023-04-18T22:31:38.897Z,9.73
2023-04-18T22:34:05.524Z,9.70
2023-04-18T22:36:32.191Z,9.90
2023-04-18T22:38:58.800Z,9.69
2023-04-18T22:41:25.414Z,9.72
2023-04-18T22:43:52.098Z,9.79
2023-04-18T22:46:18.777Z,9.93
2023-04-18T22:48:45.490Z,9.91
2023-04-18T22:51:12.120Z,9.69
2023-04-18T22:53:38.777Z,9.56
2023-04-18T22:56:05.755Z,9.45
2023-04-18T22:58:32.528Z,9.62
2023-04-18T23:00:59.629Z,9.58
2023-04-18T23:03:26.411Z,9.57
2023-04-18T23:05:53.121Z,9.55
2023-04-18T23:08:19.787Z,9.47
2023-04-18T23:10:46.462Z,9.49
2023-04-18T23:13:13.717Z,9.58
2023-04-18T23:15:40.375Z,9.63
2023-04-18T23:18:07.108Z,9.58
2023-04-18T23:20:33.877Z,9.58
2023-04-18T23:23:00.966Z,9.75
2023-04-18T23:25:27.762Z,9.75
2023-04-18T23:27:54.368Z,9.91
2023-04-18T23:30:21.060Z,9.60
2023-04-18T23:32:47.752Z,9.59
2023-04-18T23:35:14.595Z,9.40
2023-04-18T23:37:41.187Z,9.40
2023-04-18T23:40:08.503Z,9.33
2023-04-18T23:42:35.585Z,9.37
2023-04-18T23:45:03.354Z,9.48
2023-04-18T23:47:30.407Z,9.55
2023-04-18T23:49:57.053Z,9.13
2023-04-18T23:52:23.700Z,9.23
2023-04-18T23:54:50.305Z,9.47
2023-04-18T23:57:16.961Z,9.15
2023-04-18T23:59:43.611Z,9.39
